Airfield :
LOGIN :

Register | Disclaimer

   EN    FR    IT 

 










Legend :    VFR   Marginal VFR   IFR   Intensive IFR   Very Intensive IFR
Visi :
Ceiling :
>= 8 km
>= 3000ft
5 to 8 km
1000 to 3000 ft
1500m to 5 km
500 to 1000 ft
800 to 1500m
200 to 500 ft
< 800m
< 200 ft
Symbols :   Thunderstorms  Fog  Heavy snow  Heavy precipitations  Wind > 20 kt
SIGMETs :     Misc.  Thunderstorms  Icing  Turbulence  Mountain Waves  Volcanic Ashes






- Airport Elevation : 82 ft
- IATA code : ALG


DAAG - Alger Houari Boumedienne

CURRENT METAR :
  • 280300Z 20005KT 170V230 9999 FEW020 06/05 Q1018

EXPIRED METARs :
  • 280230Z 18005KT 6000 FEW023 04/03 Q1019
  • 280200Z 22003KT 3000 BR FEW023 05/04 Q1019
  • 272200Z 00000KT 8000 FEW023 SCT200 07/06 Q1021
  • 280130Z VRB02KT 3000 BR FEW023 04/03 Q1019
  • 280030Z VRB01KT 3000 BR FEW023 06/05 Q1019
  • 280100Z 22004KT 3000 BR FEW023 05/04 Q1019

TAF TAF DAAG
Valid from the 28 at 00:00 until the 29 at 00:00 UTC


272300Z 2800/2824 VRB02KT 8000 FEW023
TEMPO 2800/2806 3000 BR
BECMG 2808/2810 28012KT
TEMPO 2812/2824 FEW023TCU FEW026CB
PROB40
TEMPO 2812/2818 28015G30KT 4000 -TSRA FEW026CB



MET'MAP, your aeronautical weather chart ! - Copyright ORBIFLY December 2007 - Disclaimer

ORBIFLY MET'MAP TEAM :

Programming & Development : Alexandra Zaïnal
Original concept : Baudouin d'Aumeries
Technical & hardware support : Manuel Goepfert
Assistance : Marc-Olivier Méhu




SOURCES & CREDITS :

   NOAA